Time;durP1;ratioP1;P1;durP2;ratioP2;P2;SDS_P1;SDS_P2;PMS_P1;PMS_P2;Temp;Humidity;BMP_temperature;BMP_pressure;BME280_temperature;BME280_humidity;BME280_pressure;Samples;Min_cycle;Max_cycle;Signal;HPM_P1;HPM_P2
2020/12/20 00:01:23;;;;;;;11.63;6.80;;;8.80;92.20;;;;;;4991230;28;20499;-51
2020/12/20 00:04:09;;;;;;;13.35;6.82;;;8.80;92.20;;;;;;4982049;28;20046;-53
2020/12/20 00:06:43;;;;;;;15.98;6.93;;;8.90;92.30;;;;;;4988784;28;20062;-53
2020/12/20 00:09:20;;;;;;;15.65;7.10;;;8.90;92.20;;;;;;4986231;28;20396;-53
2020/12/20 00:11:51;;;;;;;13.30;7.15;;;8.90;92.20;;;;;;4996434;28;20035;-57
2020/12/20 00:14:27;;;;;;;12.13;6.60;;;8.90;92.20;;;;;;4980912;28;20495;-50
2020/12/20 00:17:07;;;;;;;13.50;6.72;;;8.90;92.30;;;;;;4980740;28;20487;-53
2020/12/20 00:19:35;;;;;;;12.98;6.32;;;8.90;92.20;;;;;;4992692;28;20464;-54
2020/12/20 00:22:07;;;;;;;12.35;6.65;;;8.90;92.40;;;;;;4999907;28;20069;-51
2020/12/20 00:24:53;;;;;;;14.50;7.00;;;8.80;92.40;;;;;;5000370;28;20556;-51
2020/12/20 00:27:18;;;;;;;10.18;6.53;;;8.90;92.40;;;;;;5001669;28;20137;-49
2020/12/20 00:29:44;;;;;;;15.02;7.18;;;8.90;92.30;;;;;;5000075;28;20047;-51
2020/12/20 00:32:12;;;;;;;15.45;6.60;;;8.90;92.30;;;;;;4999394;28;20479;-52
2020/12/20 00:34:38;;;;;;;14.48;6.97;;;8.90;92.30;;;;;;4990156;28;20047;-53
2020/12/20 00:37:06;;;;;;;15.00;6.40;;;8.90;92.40;;;;;;4984227;28;20038;-53
2020/12/20 00:39:31;;;;;;;10.20;6.72;;;8.80;92.30;;;;;;4999958;28;20038;-52
2020/12/20 00:42:00;;;;;;;13.73;7.28;;;8.80;92.40;;;;;;4997790;28;20085;-54
2020/12/20 00:44:27;;;;;;;11.35;6.60;;;8.90;92.30;;;;;;4992931;28;20043;-53
2020/12/20 00:47:13;;;;;;;12.07;6.78;;;8.80;92.40;;;;;;4991328;28;20050;-49
2020/12/20 00:49:58;;;;;;;13.73;7.20;;;8.80;92.40;;;;;;4995129;28;20050;-49
2020/12/20 00:52:24;;;;;;;11.48;7.22;;;8.80;92.40;;;;;;4981778;28;20492;-50
2020/12/20 00:54:49;;;;;;;11.85;7.50;;;8.80;92.50;;;;;;4980507;28;20038;-51
2020/12/20 00:57:15;;;;;;;13.02;7.55;;;8.80;92.50;;;;;;4990795;28;20039;-49
2020/12/20 01:00:03;;;;;;;13.07;7.22;;;8.80;92.50;;;;;;4974164;28;20050;-53
2020/12/20 01:02:29;;;;;;;10.75;6.68;;;8.80;92.60;;;;;;4980098;28;20038;-49
2020/12/20 01:04:55;;;;;;;14.77;7.10;;;8.70;92.60;;;;;;4983073;28;20046;-49
2020/12/20 01:07:20;;;;;;;11.02;6.93;;;8.80;92.60;;;;;;4974836;28;20045;-50
2020/12/20 01:09:46;;;;;;;15.27;7.20;;;8.80;92.60;;;;;;4985117;28;20048;-52
2020/12/20 01:12:32;;;;;;;10.77;6.65;;;8.80;92.60;;;;;;4976618;28;20074;-53
2020/12/20 01:15:00;;;;;;;13.48;7.35;;;8.80;92.60;;;;;;4992790;28;20081;-50
2020/12/20 01:17:46;;;;;;;15.43;7.28;;;8.70;92.60;;;;;;4992793;28;20038;-51
2020/12/20 01:20:13;;;;;;;10.40;6.88;;;8.70;92.80;;;;;;4989784;28;20038;-50
2020/12/20 01:22:42;;;;;;;21.63;8.75;;;8.70;92.70;;;;;;4981143;28;20043;-50
2020/12/20 01:25:28;;;;;;;14.35;7.45;;;8.70;92.80;;;;;;4991714;28;20046;-50
2020/12/20 01:28:14;;;;;;;16.02;7.80;;;8.70;92.70;;;;;;4968632;28;20062;-50
2020/12/20 01:31:03;;;;;;;11.80;7.15;;;8.70;92.70;;;;;;4990287;28;20109;-49
2020/12/20 01:33:49;;;;;;;11.30;7.35;;;8.70;92.80;;;;;;5003644;28;20407;-51
2020/12/20 01:36:16;;;;;;;13.80;7.28;;;8.60;92.80;;;;;;4982942;28;20198;-49
2020/12/20 01:38:43;;;;;;;10.50;7.00;;;8.70;92.90;;;;;;4988073;28;20317;-49
2020/12/20 01:41:10;;;;;;;13.80;7.63;;;8.60;92.80;;;;;;4993151;28;20043;-49
2020/12/20 01:43:47;;;;;;;11.05;7.50;;;8.60;92.80;;;;;;4981580;28;20070;-49
2020/12/20 01:46:18;;;;;;;14.98;7.28;;;8.70;92.90;;;;;;4979745;28;20042;-51
2020/12/20 01:49:04;;;;;;;15.35;7.63;;;8.70;92.90;;;;;;4988336;28;20046;-49
2020/12/20 01:51:29;;;;;;;13.95;7.25;;;8.60;92.90;;;;;;4987066;28;20087;-49
2020/12/20 01:54:16;;;;;;;12.15;7.32;;;8.70;92.90;;;;;;4979802;28;20049;-53
2020/12/20 01:57:03;;;;;;;16.13;7.63;;;8.70;92.90;;;;;;4975139;28;20057;-50
2020/12/20 01:59:30;;;;;;;14.63;7.70;;;8.60;93.10;;;;;;4991498;28;20053;-50
2020/12/20 02:01:59;;;;;;;15.98;8.20;;;8.70;92.80;;;;;;4983890;28;20499;-51
2020/12/20 02:04:26;;;;;;;14.10;7.20;;;8.60;92.90;;;;;;4973613;28;20050;-53
2020/12/20 02:07:13;;;;;;;14.70;7.25;;;8.70;93.00;;;;;;4972832;28;20057;-49
2020/12/20 02:09:39;;;;;;;14.65;8.02;;;8.70;93.00;;;;;;4981228;28;20039;-50
2020/12/20 02:12:27;;;;;;;12.85;7.30;;;8.80;92.90;;;;;;4992694;28;20108;-51
2020/12/20 02:15:14;;;;;;;12.77;7.68;;;8.70;92.90;;;;;;4989909;28;20047;-51
2020/12/20 02:17:40;;;;;;;12.68;7.78;;;8.80;93.10;;;;;;4990477;28;20061;-50
2020/12/20 02:20:08;;;;;;;15.80;7.20;;;8.80;92.90;;;;;;4990528;28;20046;-52
2020/12/20 02:22:38;;;;;;;13.27;7.30;;;8.80;92.80;;;;;;4989864;28;20046;-48
2020/12/20 02:25:04;;;;;;;12.75;7.13;;;8.70;92.90;;;;;;5009136;28;20051;-52
2020/12/20 02:27:50;;;;;;;12.95;7.32;;;8.70;92.90;;;;;;4981925;28;20039;-51
2020/12/20 02:30:16;;;;;;;12.20;7.38;;;8.80;92.90;;;;;;4974027;28;20039;-50
2020/12/20 02:32:41;;;;;;;12.68;7.65;;;8.70;92.90;;;;;;4976485;28;20157;-52
2020/12/20 02:35:27;;;;;;;17.25;7.38;;;8.80;93.00;;;;;;4992330;28;20129;-49
2020/12/20 02:37:54;;;;;;;12.95;6.50;;;8.80;93.00;;;;;;4975192;28;20250;-49
2020/12/20 02:40:21;;;;;;;15.00;7.68;;;8.80;92.80;;;;;;4976163;28;20138;-51
2020/12/20 02:42:46;;;;;;;12.52;6.80;;;8.90;92.80;;;;;;4978009;28;20097;-51
2020/12/20 02:45:12;;;;;;;11.98;6.45;;;8.80;92.80;;;;;;4995317;28;20102;-53
2020/12/20 02:47:58;;;;;;;11.60;6.72;;;8.90;92.90;;;;;;4991569;28;20560;-52
2020/12/20 02:50:24;;;;;;;12.98;7.10;;;8.90;92.80;;;;;;4995812;28;20177;-51
2020/12/20 02:52:51;;;;;;;13.30;6.50;;;8.90;92.70;;;;;;4996181;28;20042;-50
2020/12/20 02:55:17;;;;;;;10.38;6.25;;;8.90;92.80;;;;;;4986263;28;20054;-51
2020/12/20 02:57:43;;;;;;;12.60;6.53;;;8.90;92.70;;;;;;4990545;28;20510;-51
2020/12/20 03:00:29;;;;;;;13.27;6.60;;;9.00;92.60;;;;;;4986694;28;20054;-53
2020/12/20 03:03:15;;;;;;;11.20;6.15;;;9.00;92.60;;;;;;4961359;28;20071;-53
2020/12/20 03:05:42;;;;;;;15.10;6.95;;;9.00;92.60;;;;;;4977177;28;20499;-49
2020/12/20 03:08:08;;;;;;;14.13;6.75;;;9.00;92.60;;;;;;4995044;28;20045;-52
2020/12/20 03:10:35;;;;;;;12.65;6.55;;;8.90;92.60;;;;;;4975244;28;20522;-52
2020/12/20 03:13:01;;;;;;;14.98;7.00;;;8.90;92.60;;;;;;4991697;28;20042;-54
2020/12/20 03:15:29;;;;;;;17.30;6.95;;;8.90;92.60;;;;;;4995249;28;20125;-52
2020/12/20 03:17:56;;;;;;;14.60;6.80;;;8.90;92.60;;;;;;4994256;28;20138;-54
2020/12/20 03:20:22;;;;;;;12.50;6.63;;;8.90;92.70;;;;;;4995682;28;20046;-52
2020/12/20 03:22:49;;;;;;;12.20;6.65;;;8.80;92.70;;;;;;4981651;28;20051;-54
2020/12/20 03:25:17;;;;;;;12.85;6.43;;;8.80;92.80;;;;;;4979613;28;20530;-52
2020/12/20 03:27:44;;;;;;;13.50;6.50;;;8.80;92.70;;;;;;4984039;28;20070;-53
2020/12/20 03:30:10;;;;;;;12.23;6.63;;;8.80;92.80;;;;;;4992702;28;20053;-55
2020/12/20 03:32:36;;;;;;;10.90;6.50;;;8.80;92.90;;;;;;4986051;28;20065;-54
2020/12/20 03:35:04;;;;;;;13.00;6.72;;;8.70;92.90;;;;;;4991995;28;20053;-54
2020/12/20 03:37:30;;;;;;;14.52;6.82;;;8.70;92.90;;;;;;4988363;28;20548;-54
2020/12/20 03:39:57;;;;;;;10.73;6.50;;;8.70;92.90;;;;;;4974247;28;20054;-49
2020/12/20 03:42:23;;;;;;;11.85;6.05;;;8.70;92.90;;;;;;4992286;28;20046;-53
2020/12/20 03:44:49;;;;;;;12.00;6.53;;;8.70;92.90;;;;;;4997646;28;20050;-51
2020/12/20 03:47:15;;;;;;;14.38;6.20;;;8.70;92.90;;;;;;4994533;28;20038;-51
2020/12/20 03:50:01;;;;;;;10.43;6.45;;;8.70;92.90;;;;;;4990504;28;20412;-52
2020/12/20 03:52:26;;;;;;;13.05;6.38;;;8.70;92.80;;;;;;4978569;28;20128;-51
2020/12/20 03:54:53;;;;;;;12.10;6.93;;;8.70;92.90;;;;;;4987481;28;20130;-49
2020/12/20 03:57:22;;;;;;;11.52;6.10;;;8.60;92.90;;;;;;4984559;28;20074;-53
2020/12/20 03:59:50;;;;;;;14.43;7.22;;;8.70;93.00;;;;;;4985906;28;20129;-53
2020/12/20 04:02:35;;;;;;;11.65;6.07;;;8.70;92.90;;;;;;4981596;28;20123;-48
2020/12/20 04:05:21;;;;;;;13.68;6.63;;;8.60;93.00;;;;;;4997598;28;20047;-49
2020/12/20 04:07:46;;;;;;;13.32;6.20;;;8.60;93.00;;;;;;4980489;28;20042;-49
2020/12/20 04:10:12;;;;;;;13.43;6.75;;;8.60;93.00;;;;;;4988169;28;20050;-52
2020/12/20 04:12:58;;;;;;;15.23;6.60;;;8.60;93.10;;;;;;4991580;28;20063;-48
2020/12/20 04:15:25;;;;;;;11.75;6.65;;;8.50;93.10;;;;;;4989143;28;20466;-51
2020/12/20 04:17:51;;;;;;;12.45;6.32;;;8.50;93.10;;;;;;4995497;28;20039;-50
2020/12/20 04:20:39;;;;;;;12.70;7.45;;;8.50;93.20;;;;;;4963729;28;20077;-50
2020/12/20 04:23:25;;;;;;;11.95;7.00;;;8.50;93.10;;;;;;4976305;28;20049;-49
2020/12/20 04:25:51;;;;;;;11.15;6.30;;;8.60;93.10;;;;;;4977293;28;20055;-51
2020/12/20 04:28:17;;;;;;;13.70;6.97;;;8.60;93.00;;;;;;4978680;28;20031;-52
2020/12/20 04:30:43;;;;;;;15.45;7.00;;;8.50;93.10;;;;;;4985244;28;20062;-51
2020/12/20 04:33:28;;;;;;;15.88;6.90;;;8.50;93.10;;;;;;4993418;28;20110;-51
2020/12/20 04:35:54;;;;;;;12.10;6.47;;;8.50;93.10;;;;;;4996066;28;20073;-49
2020/12/20 04:38:42;;;;;;;11.20;6.43;;;8.50;93.10;;;;;;4993573;28;20039;-49
2020/12/20 04:41:10;;;;;;;12.57;7.05;;;8.40;93.10;;;;;;4995732;28;20442;-51
2020/12/20 04:43:37;;;;;;;12.20;6.97;;;8.40;93.20;;;;;;4993083;28;20049;-52
2020/12/20 04:46:05;;;;;;;16.60;6.68;;;8.40;93.20;;;;;;4984277;28;20097;-49
2020/12/20 04:48:39;;;;;;;12.48;6.95;;;8.40;93.20;;;;;;4988289;28;20137;-54
2020/12/20 04:51:09;;;;;;;15.05;6.78;;;8.30;93.20;;;;;;4984436;28;20051;-50
2020/12/20 04:53:35;;;;;;;12.90;6.65;;;8.40;93.40;;;;;;4987618;28;20108;-51
2020/12/20 04:56:07;;;;;;;17.40;7.70;;;8.40;93.20;;;;;;4989519;28;20039;-51
2020/12/20 04:58:35;;;;;;;14.52;7.22;;;8.30;93.20;;;;;;4985788;28;20049;-53
2020/12/20 05:01:02;;;;;;;18.17;7.63;;;8.40;93.20;;;;;;4991825;28;20047;-51
2020/12/20 05:03:29;;;;;;;14.85;7.63;;;8.30;93.20;;;;;;4982955;28;20053;-50
2020/12/20 05:05:55;;;;;;;13.30;7.28;;;8.40;93.10;;;;;;4990059;28;20089;-52
2020/12/20 05:08:22;;;;;;;14.15;7.43;;;8.40;93.30;;;;;;4984653;28;20039;-51
2020/12/20 05:10:49;;;;;;;15.57;6.78;;;8.40;93.20;;;;;;4973149;28;20073;-49
2020/12/20 05:13:20;;;;;;;16.95;7.93;;;8.40;93.20;;;;;;4993950;28;20046;-52
2020/12/20 05:15:47;;;;;;;14.93;7.13;;;8.40;93.20;;;;;;4980094;28;20051;-49
2020/12/20 05:18:15;;;;;;;15.35;6.97;;;8.40;93.20;;;;;;4990522;28;20041;-50
2020/12/20 05:20:48;;;;;;;11.38;6.25;;;8.40;93.20;;;;;;4981539;28;20047;-51
2020/12/20 05:23:16;;;;;;;11.13;7.00;;;8.40;93.30;;;;;;4985424;28;20042;-52
2020/12/20 05:25:44;;;;;;;12.00;7.10;;;8.40;93.20;;;;;;4972857;28;20062;-51
2020/12/20 05:28:19;;;;;;;15.73;7.35;;;8.40;93.20;;;;;;4976115;28;20042;-49
2020/12/20 05:31:09;;;;;;;16.88;6.97;;;8.50;93.10;;;;;;4979042;28;20053;-49
2020/12/20 05:33:35;;;;;;;13.13;6.78;;;8.40;93.00;;;;;;4978953;28;20042;-48
2020/12/20 05:36:08;;;;;;;12.82;6.50;;;8.40;93.20;;;;;;4981935;28;20510;-50
2020/12/20 05:38:36;;;;;;;11.07;6.20;;;8.40;93.20;;;;;;4991597;28;20062;-52
2020/12/20 05:41:03;;;;;;;14.25;6.60;;;8.50;93.20;;;;;;4981907;28;20066;-50
2020/12/20 05:43:29;;;;;;;17.65;7.22;;;8.40;93.20;;;;;;4975487;28;20058;-50
2020/12/20 05:46:00;;;;;;;13.13;6.93;;;8.40;93.20;;;;;;4983733;28;20076;-51
2020/12/20 05:48:45;;;;;;;13.85;6.70;;;8.40;93.20;;;;;;4989385;28;20042;-49
2020/12/20 05:51:31;;;;;;;15.93;6.53;;;8.40;93.20;;;;;;4990902;28;20133;-50
2020/12/20 05:54:17;;;;;;;12.98;7.22;;;8.40;93.20;;;;;;4969870;28;20051;-51
2020/12/20 05:56:43;;;;;;;12.43;6.72;;;8.40;93.20;;;;;;4975581;28;20050;-50
2020/12/20 05:59:30;;;;;;;13.32;6.50;;;8.40;93.20;;;;;;4977653;28;20142;-51
2020/12/20 06:02:16;;;;;;;12.80;6.32;;;8.40;93.30;;;;;;4974974;28;20043;-53
2020/12/20 06:05:02;;;;;;;20.23;7.25;;;8.40;93.30;;;;;;4972202;28;20086;-52
2020/12/20 06:07:29;;;;;;;19.33;6.93;;;8.40;93.30;;;;;;4975788;28;20047;-51
2020/12/20 06:10:00;;;;;;;16.95;6.78;;;8.40;93.30;;;;;;4974235;28;20104;-52
2020/12/20 06:12:30;;;;;;;15.52;7.15;;;8.40;93.30;;;;;;4986566;28;20077;-51
2020/12/20 06:14:58;;;;;;;13.35;7.15;;;8.40;93.20;;;;;;4976542;28;20046;-51
2020/12/20 06:17:27;;;;;;;17.33;7.05;;;8.40;93.20;;;;;;4989153;28;20133;-52
2020/12/20 06:20:01;;;;;;;14.48;6.80;;;8.50;93.30;;;;;;4994503;28;20085;-53
2020/12/20 06:22:33;;;;;;;14.07;6.47;;;8.50;93.30;;;;;;4995200;28;20511;-51
2020/12/20 06:25:00;;;;;;;16.23;7.10;;;8.50;93.30;;;;;;4982251;28;20046;-49
2020/12/20 06:27:31;;;;;;;16.77;7.18;;;8.50;93.20;;;;;;4983281;28;20058;-50
2020/12/20 06:30:20;;;;;;;17.90;6.40;;;8.40;93.20;;;;;;4981817;28;20085;-51
2020/12/20 06:32:54;;;;;;;14.57;6.78;;;8.50;93.30;;;;;;4992419;28;20223;-52
2020/12/20 06:35:41;;;;;;;17.63;6.80;;;8.50;93.20;;;;;;4979262;28;20438;-50
2020/12/20 06:38:14;;;;;;;14.80;6.32;;;8.50;93.20;;;;;;4978466;28;20030;-50
2020/12/20 06:40:41;;;;;;;16.30;7.17;;;8.50;93.30;;;;;;4985438;28;20038;-48
2020/12/20 06:43:08;;;;;;;15.20;6.78;;;8.50;93.20;;;;;;4982729;28;20326;-48
2020/12/20 06:45:43;;;;;;;14.30;6.75;;;8.50;93.20;;;;;;4980105;28;20085;-51
2020/12/20 06:48:09;;;;;;;14.05;6.72;;;8.50;93.20;;;;;;4992829;28;20504;-49
2020/12/20 06:50:38;;;;;;;13.75;6.90;;;8.50;93.20;;;;;;4983943;28;20076;-52
2020/12/20 06:53:04;;;;;;;17.60;6.40;;;8.50;93.10;;;;;;4984723;28;20462;-51
2020/12/20 06:55:31;;;;;;;16.85;7.65;;;8.50;93.10;;;;;;4989155;28;20070;-50
2020/12/20 06:58:04;;;;;;;13.55;6.30;;;8.50;93.20;;;;;;4994380;28;20042;-51
2020/12/20 07:00:54;;;;;;;14.65;6.50;;;8.60;93.20;;;;;;4992126;28;20042;-51
2020/12/20 07:03:31;;;;;;;15.43;6.07;;;8.60;93.20;;;;;;4999193;28;20467;-52
2020/12/20 07:06:23;;;;;;;12.65;6.43;;;8.60;93.10;;;;;;4989248;28;20047;-49
2020/12/20 07:08:56;;;;;;;12.60;5.95;;;8.70;93.00;;;;;;4969905;28;20427;-52
2020/12/20 07:11:27;;;;;;;16.52;5.75;;;8.70;93.00;;;;;;4977252;28;20117;-50
2020/12/20 07:13:55;;;;;;;14.85;5.88;;;8.60;93.00;;;;;;4974507;28;20050;-53
2020/12/20 07:16:41;;;;;;;16.35;6.57;;;8.60;93.00;;;;;;4988161;28;20046;-49
2020/12/20 07:19:09;;;;;;;11.07;5.85;;;8.60;93.10;;;;;;5002584;28;20073;-49
2020/12/20 07:21:56;;;;;;;14.07;6.38;;;8.60;93.00;;;;;;4990827;28;20074;-48
2020/12/20 07:24:25;;;;;;;14.02;5.85;;;8.70;93.00;;;;;;4974541;28;20183;-48
2020/12/20 07:26:55;;;;;;;10.65;6.18;;;8.60;93.10;;;;;;4981679;28;20516;-49
2020/12/20 07:29:21;;;;;;;12.10;6.32;;;8.60;93.10;;;;;;4994966;28;20559;-52
2020/12/20 07:32:08;;;;;;;13.50;6.28;;;8.60;93.20;;;;;;4973947;28;20050;-50
2020/12/20 07:34:56;;;;;;;13.75;6.45;;;8.60;93.20;;;;;;4987915;28;20047;-52
2020/12/20 07:37:22;;;;;;;14.63;6.15;;;8.60;93.10;;;;;;4974277;28;20221;-49
2020/12/20 07:40:08;;;;;;;16.35;5.80;;;8.60;93.10;;;;;;4980231;28;20093;-51
2020/12/20 07:43:04;;;;;;;15.93;6.65;;;8.60;93.00;;;;;;4986008;28;20049;-53
2020/12/20 07:45:30;;;;;;;13.80;6.07;;;8.50;93.10;;;;;;4980368;28;20456;-52
2020/12/20 07:47:56;;;;;;;14.30;6.28;;;8.50;93.20;;;;;;4991853;28;20077;-53
2020/12/20 07:50:26;;;;;;;19.73;6.82;;;8.50;93.20;;;;;;4993431;28;20045;-51
2020/12/20 07:53:13;;;;;;;18.05;6.63;;;8.50;93.20;;;;;;4977241;28;20042;-51
2020/12/20 07:55:59;;;;;;;14.48;6.47;;;8.50;93.20;;;;;;4973487;28;20046;-52
2020/12/20 07:58:25;;;;;;;13.25;6.22;;;8.50;93.30;;;;;;4989389;28;20042;-52
2020/12/20 08:01:05;;;;;;;12.70;6.60;;;8.40;93.20;;;;;;4989019;28;20030;-50
2020/12/20 08:03:31;;;;;;;12.82;6.45;;;8.40;93.30;;;;;;4974740;28;20121;-50
2020/12/20 08:06:11;;;;;;;12.30;6.47;;;8.40;93.30;;;;;;4985171;28;20042;-53
2020/12/20 08:08:38;;;;;;;15.48;6.68;;;8.40;93.30;;;;;;4974957;28;20043;-53
2020/12/20 08:11:26;;;;;;;13.10;6.15;;;8.40;93.40;;;;;;4993027;28;20097;-53
2020/12/20 08:14:14;;;;;;;11.95;6.35;;;8.40;93.30;;;;;;4977381;28;20046;-51
2020/12/20 08:16:44;;;;;;;13.43;6.78;;;8.30;93.30;;;;;;4997151;28;20129;-51
2020/12/20 08:19:16;;;;;;;12.32;6.60;;;8.40;93.20;;;;;;4990619;28;20034;-50
2020/12/20 08:22:00;;;;;;;11.05;6.63;;;8.40;93.20;;;;;;4982671;28;20065;-49
2020/12/20 08:24:33;;;;;;;14.10;6.60;;;8.40;93.20;;;;;;4977128;28;20056;-50
2020/12/20 08:27:14;;;;;;;14.10;7.27;;;8.40;93.30;;;;;;4981484;28;20153;-50
2020/12/20 08:30:04;;;;;;;12.07;6.38;;;8.40;93.30;;;;;;4972212;28;20581;-53
2020/12/20 08:32:41;;;;;;;14.38;6.68;;;8.40;93.40;;;;;;4973595;28;20042;-50
2020/12/20 08:35:15;;;;;;;13.23;6.35;;;8.40;93.40;;;;;;4982949;28;20399;-50
2020/12/20 08:37:42;;;;;;;11.05;6.03;;;8.50;93.20;;;;;;4988165;28;20050;-50
2020/12/20 08:40:16;;;;;;;14.32;7.35;;;8.50;93.30;;;;;;4992857;28;20484;-52
2020/12/20 08:43:03;;;;;;;17.10;6.90;;;8.50;93.20;;;;;;4990691;28;20046;-50
2020/12/20 08:45:30;;;;;;;14.30;5.88;;;8.50;93.10;;;;;;4992220;28;20054;-53
2020/12/20 08:48:03;;;;;;;14.73;6.47;;;8.50;93.20;;;;;;4978438;28;20550;-51
2020/12/20 08:50:31;;;;;;;18.10;6.75;;;8.60;93.10;;;;;;4991311;28;20056;-51
2020/12/20 08:52:58;;;;;;;13.02;6.43;;;8.60;93.00;;;;;;4991690;28;20054;-51
2020/12/20 08:55:24;;;;;;;13.10;6.00;;;8.60;93.10;;;;;;4992435;28;20046;-50
2020/12/20 08:58:01;;;;;;;13.50;6.32;;;8.60;93.10;;;;;;4979752;28;20039;-49
2020/12/20 09:00:27;;;;;;;20.60;6.80;;;8.60;93.20;;;;;;4975769;28;20121;-54
2020/12/20 09:03:00;;;;;;;15.63;6.63;;;8.60;93.20;;;;;;4966031;28;20046;-50
2020/12/20 09:05:28;;;;;;;15.82;6.45;;;8.60;93.30;;;;;;4983174;28;20074;-51
2020/12/20 09:07:55;;;;;;;15.05;6.35;;;8.60;93.30;;;;;;4987008;28;20038;-50
2020/12/20 09:10:27;;;;;;;16.88;6.90;;;8.60;93.30;;;;;;4975734;28;20067;-48
2020/12/20 09:12:54;;;;;;;15.13;6.80;;;8.60;93.30;;;;;;4973474;28;20047;-48
2020/12/20 09:15:41;;;;;;;13.93;6.50;;;8.60;93.30;;;;;;4986207;28;20043;-48
2020/12/20 09:18:21;;;;;;;15.57;6.93;;;8.60;93.20;;;;;;4972973;28;20039;-48
2020/12/20 09:20:47;;;;;;;15.77;7.22;;;8.60;93.30;;;;;;4985464;28;20042;-48
2020/12/20 09:23:24;;;;;;;16.10;6.70;;;8.70;93.20;;;;;;4992494;28;20046;-48
2020/12/20 09:26:02;;;;;;;17.42;7.25;;;8.70;93.20;;;;;;4993258;28;20499;-48
2020/12/20 09:28:30;;;;;;;14.98;7.10;;;8.70;93.30;;;;;;4974703;28;20440;-49
2020/12/20 09:30:57;;;;;;;17.75;7.30;;;8.70;93.30;;;;;;4989690;28;20062;-51
2020/12/20 09:33:36;;;;;;;16.75;7.22;;;8.80;93.20;;;;;;4989398;28;20052;-49
2020/12/20 09:36:12;;;;;;;17.25;6.82;;;8.80;93.20;;;;;;4976990;28;20042;-51
2020/12/20 09:38:42;;;;;;;16.52;6.80;;;8.80;93.20;;;;;;4989621;28;20046;-48
2020/12/20 09:41:16;;;;;;;13.57;6.70;;;8.80;93.10;;;;;;4995125;28;20042;-50
2020/12/20 09:44:02;;;;;;;15.15;7.18;;;8.80;93.10;;;;;;4992695;28;20058;-53
2020/12/20 09:46:30;;;;;;;15.82;7.05;;;8.90;93.10;;;;;;4980336;28;20563;-48
2020/12/20 09:48:57;;;;;;;21.27;7.18;;;8.90;93.20;;;;;;4985401;28;20454;-48
2020/12/20 09:51:24;;;;;;;17.77;6.57;;;8.90;93.20;;;;;;4979942;28;20050;-51
2020/12/20 09:54:10;;;;;;;19.52;7.45;;;8.90;93.20;;;;;;4979028;28;20089;-48
2020/12/20 09:56:56;;;;;;;15.82;6.90;;;8.90;93.20;;;;;;4981099;28;20093;-50
2020/12/20 09:59:22;;;;;;;16.10;7.63;;;8.90;93.30;;;;;;4993427;28;20062;-50
2020/12/20 10:01:48;;;;;;;16.92;6.90;;;8.90;93.20;;;;;;4981661;28;20460;-52
2020/12/20 10:04:14;;;;;;;13.68;6.43;;;9.00;93.20;;;;;;5009390;28;20046;-50
2020/12/20 10:06:39;;;;;;;16.55;6.55;;;9.00;93.20;;;;;;4996541;28;20042;-52
2020/12/20 10:09:05;;;;;;;16.73;6.70;;;9.00;93.20;;;;;;4991556;28;20422;-49
2020/12/20 10:11:50;;;;;;;23.02;7.45;;;9.00;93.20;;;;;;4989363;28;20047;-52
2020/12/20 10:14:16;;;;;;;19.85;6.93;;;9.10;93.20;;;;;;4985759;28;20042;-49
2020/12/20 10:16:42;;;;;;;20.52;7.35;;;9.10;93.10;;;;;;4990311;28;20047;-51
2020/12/20 10:19:08;;;;;;;16.85;6.97;;;9.10;93.10;;;;;;4977264;28;20049;-52
2020/12/20 10:21:34;;;;;;;16.60;6.85;;;9.10;93.10;;;;;;4977487;28;20046;-51
2020/12/20 10:23:59;;;;;;;20.75;6.93;;;9.10;93.10;;;;;;4985085;28;20049;-51
2020/12/20 10:26:46;;;;;;;22.90;7.53;;;9.20;93.00;;;;;;4993566;28;20446;-52
2020/12/20 10:29:15;;;;;;;23.67;7.68;;;9.20;93.00;;;;;;4996847;28;20441;-49
2020/12/20 10:31:41;;;;;;;18.98;7.50;;;9.30;92.90;;;;;;4996462;28;20042;-48
2020/12/20 10:34:08;;;;;;;22.45;8.55;;;9.30;92.90;;;;;;4982784;28;20046;-49
2020/12/20 10:36:35;;;;;;;20.10;7.88;;;9.40;92.50;;;;;;4985592;28;20043;-51
2020/12/20 10:39:05;;;;;;;16.95;7.93;;;9.40;92.50;;;;;;4994449;28;20038;-48
2020/12/20 10:41:52;;;;;;;20.48;8.48;;;9.40;92.70;;;;;;4996114;28;20071;-50
2020/12/20 10:44:38;;;;;;;24.02;8.95;;;9.40;92.70;;;;;;4968527;28;20545;-49
2020/12/20 10:47:06;;;;;;;24.52;9.32;;;9.40;92.70;;;;;;4984474;28;20113;-50
2020/12/20 10:49:32;;;;;;;19.35;8.57;;;9.50;92.70;;;;;;4982077;28;20050;-53
2020/12/20 10:52:18;;;;;;;24.70;8.25;;;9.50;92.70;;;;;;4987221;28;20046;-50
2020/12/20 10:55:04;;;;;;;23.27;8.30;;;9.50;92.60;;;;;;4984623;28;20093;-49
2020/12/20 10:57:31;;;;;;;22.80;8.25;;;9.50;92.60;;;;;;4983536;28;20046;-53
2020/12/20 10:59:59;;;;;;;22.60;10.00;;;9.50;92.50;;;;;;4987597;28;20047;-49
2020/12/20 11:02:45;;;;;;;23.50;8.38;;;9.70;92.30;;;;;;4964945;28;20034;-48
2020/12/20 11:05:30;;;;;;;22.48;8.65;;;9.60;92.50;;;;;;4988115;28;20137;-49
2020/12/20 11:07:56;;;;;;;22.00;8.95;;;9.60;92.40;;;;;;4990373;28;20070;-49
2020/12/20 11:10:21;;;;;;;21.80;8.40;;;9.70;92.30;;;;;;4979041;28;20081;-49
2020/12/20 11:12:47;;;;;;;22.08;8.65;;;9.60;92.30;;;;;;4982397;28;20134;-49
2020/12/20 11:15:33;;;;;;;23.25;8.20;;;9.70;92.40;;;;;;4978102;28;20039;-50
2020/12/20 11:18:00;;;;;;;19.73;8.80;;;9.80;92.10;;;;;;4989099;28;20097;-48
2020/12/20 11:20:26;;;;;;;24.92;8.00;;;9.80;92.10;;;;;;4981369;28;20046;-50
2020/12/20 11:22:53;;;;;;;19.23;8.13;;;9.80;92.10;;;;;;4990362;28;20426;-50
2020/12/20 11:25:19;;;;;;;21.13;7.80;;;9.80;92.10;;;;;;4990950;28;20518;-52
2020/12/20 11:28:06;;;;;;;18.55;7.43;;;9.80;92.20;;;;;;4995608;28;20066;-51
2020/12/20 11:30:31;;;;;;;21.92;8.43;;;9.80;92.10;;;;;;5000281;28;20505;-50
2020/12/20 11:32:57;;;;;;;19.75;8.77;;;9.70;92.10;;;;;;4988370;28;20215;-51
2020/12/20 11:35:22;;;;;;;20.98;8.32;;;9.70;92.10;;;;;;4980668;28;20081;-50
2020/12/20 11:38:11;;;;;;;21.83;7.95;;;9.80;92.20;;;;;;4998557;28;20049;-50
2020/12/20 11:40:57;;;;;;;21.25;8.85;;;9.90;91.80;;;;;;4993220;28;20070;-52
2020/12/20 11:43:23;;;;;;;19.48;8.50;;;9.90;91.80;;;;;;4990772;28;20502;-50
2020/12/20 11:45:50;;;;;;;20.65;7.85;;;9.80;91.90;;;;;;4981062;28;20483;-49
2020/12/20 11:48:36;;;;;;;21.38;7.88;;;9.90;91.90;;;;;;4979301;28;20137;-49
2020/12/20 11:51:03;;;;;;;21.05;8.63;;;9.90;92.00;;;;;;4980742;28;20058;-50
2020/12/20 11:53:50;;;;;;;27.55;8.88;;;9.90;92.10;;;;;;5000507;28;20046;-52
2020/12/20 11:56:36;;;;;;;23.30;8.35;;;9.90;91.90;;;;;;4984572;28;20047;-51
2020/12/20 11:59:02;;;;;;;19.50;7.85;;;9.90;91.80;;;;;;5000997;28;20046;-52
2020/12/20 12:01:48;;;;;;;21.50;7.38;;;9.90;91.80;;;;;;4993798;28;20038;-50
2020/12/20 12:04:35;;;;;;;25.83;7.93;;;10.00;91.60;;;;;;4968259;28;20078;-49
2020/12/20 12:07:20;;;;;;;27.63;9.50;;;10.00;91.50;;;;;;4991906;28;20105;-53
2020/12/20 12:09:46;;;;;;;24.10;7.28;;;10.00;91.50;;;;;;4987579;28;20046;-54
2020/12/20 12:12:31;;;;;;;21.95;8.32;;;10.10;91.30;;;;;;4986705;28;20073;-52
2020/12/20 12:15:19;;;;;;;22.35;7.82;;;10.10;91.30;;;;;;4980933;28;20554;-54
2020/12/20 12:17:45;;;;;;;22.98;8.05;;;10.10;91.30;;;;;;4988058;28;20049;-52
2020/12/20 12:20:11;;;;;;;25.52;8.77;;;10.10;91.40;;;;;;4991209;28;20438;-54
2020/12/20 12:22:37;;;;;;;22.23;7.85;;;10.10;91.30;;;;;;4985030;28;20393;-52
2020/12/20 12:25:24;;;;;;;23.55;7.72;;;10.20;91.40;;;;;;4978860;28;20515;-53
2020/12/20 12:27:50;;;;;;;21.05;7.68;;;10.20;91.20;;;;;;4989095;28;20073;-53
2020/12/20 12:30:16;;;;;;;22.08;8.60;;;10.30;90.90;;;;;;4998241;28;20050;-54
2020/12/20 12:32:42;;;;;;;19.17;7.20;;;10.30;90.90;;;;;;4998955;28;20129;-50
2020/12/20 12:35:10;;;;;;;25.95;7.63;;;10.20;90.80;;;;;;4985176;28;20080;-52
2020/12/20 12:37:56;;;;;;;15.73;7.00;;;10.20;91.00;;;;;;4977453;28;20499;-54
2020/12/20 12:40:21;;;;;;;16.52;7.55;;;10.10;91.00;;;;;;4978962;28;20115;-52
2020/12/20 12:43:07;;;;;;;21.65;7.75;;;10.10;91.20;;;;;;4989054;28;20089;-53
2020/12/20 12:45:33;;;;;;;25.30;7.85;;;10.10;91.30;;;;;;5006042;28;20076;-53
2020/12/20 12:47:58;;;;;;;21.00;7.90;;;10.20;91.20;;;;;;4982634;28;20176;-48
2020/12/20 12:50:24;;;;;;;19.00;7.22;;;10.30;91.10;;;;;;4985089;28;20110;-50
2020/12/20 12:52:50;;;;;;;22.67;6.93;;;10.30;91.00;;;;;;4987517;28;20042;-48
2020/12/20 12:55:35;;;;;;;19.55;7.40;;;10.30;91.00;;;;;;4986025;28;20101;-51
2020/12/20 12:58:21;;;;;;;21.13;7.35;;;10.40;90.90;;;;;;4978927;28;20050;-50
2020/12/20 13:00:47;;;;;;;24.15;7.00;;;10.40;91.00;;;;;;4984323;28;20448;-52
2020/12/20 13:03:13;;;;;;;21.92;7.88;;;10.40;90.90;;;;;;4980937;28;20049;-50
2020/12/20 13:05:40;;;;;;;17.65;6.70;;;10.50;90.70;;;;;;4974328;28;20118;-48
2020/12/20 13:08:06;;;;;;;21.85;6.70;;;10.40;90.60;;;;;;4974007;28;20046;-52
2020/12/20 13:10:54;;;;;;;22.20;6.45;;;10.40;90.60;;;;;;4986481;28;20042;-48
2020/12/20 13:13:20;;;;;;;20.70;7.07;;;10.40;90.90;;;;;;4987545;28;20133;-51
2020/12/20 13:16:07;;;;;;;23.27;8.40;;;10.30;90.60;;;;;;4979327;28;20047;-50